Preston, Arkansas
Current Conditions -  °F | °C
As of 10:58 AM on Friday 19 Dec 2014 (Local Time) from KLRF Reporting Station
Overcast Overcast  
Wind Chill: 39°   Ceiling: 1300
Heat Index: 42°   Visibility: 10mi
Dew Point: 37°   Wind: 5mph
Humidity: 82%   Direction: 70°ENE
Pressure: 30.3"   Gusts: NA
Location:  35.0822°N, 92.366°W
Report Text: KLRF 191658Z AUTO 07004KT 10SM BKN013 OVC020 06/03 A3030 RMK AO2 SLP265 T00570028
Loading
Personal Weather Stations






























Interactive Weather Map New forecast layout! Learn more

10-Day Weather Forecast

Advertisements
Track Severe Weather on mobile